Southeast Iowa Regional Airport
KBRL : rendu visible

Aérodrome :











RETROUVEZ-NOUS SUR...

 
LOGIN :

S'inscrire | Disclaimer

   EN    FR    IT 

 









Légende :    VFR   VFR Marginal   IFR   IFR Intensif   IFR Très Intensif
Visi : 
Plafond : 
>= 8 km
>= 3000ft
5 à 8 km
1000 à 3000 ft
1500m à 5 km
500 à 1000 ft
800 à 1500m
200 à 500 ft
< 800m
< 200 ft
Symboles :   Orages  Brouillard  Fortes neiges  Fortes précipitations  Vent > 20 kt






- Altitude de l'aérodrome : 698 ft
- Code IATA : BRL


KBRL - Southeast Iowa Regional

DERNIER METAR :
  • 230122Z AUTO 17010KT 2 1/2SM -SN BR BKN008 BKN015 OVC021 M01/M02 A3005 RMK AO2 P0000 T10061022

METARs EXPIRÉS :
  • 230057Z AUTO 17009KT 1 3/4SM -SN BR BKN007 BKN014 OVC025 M01/M02 A3005 RMK AO2 CIG 006V011 P0000 T10061022
  • 230053Z AUTO 17011KT 2SM -SN BR SCT009 BKN012 OVC025 M01/M02 A3005 RMK AO2 SLP183 P0000 T10061022
  • 230034Z AUTO 17010KT 2 1/2SM -SN BR FEW008 OVC026 M01/M03 A3004 RMK AO2 P0000 T10061028
  • 230024Z AUTO 18012KT 3SM -SN BR FEW008 SCT019 OVC027 M01/M03 A3005 RMK AO2 P0000 T10061028
  • 222353Z AUTO 18013G22KT 4SM -SN OVC023 01/M04 A3004 RMK AO2 SNB27 SLP181 P0000 60000 T00061044 10006 21011 55001
  • 222334Z AUTO 17009KT 5SM -SN BKN021 OVC030 01/M04 A3004 RMK AO2 SNB27 P0000 T00061044
  • 222253Z AUTO 15008KT 10SM OVC043 01/M05 A3003 RMK AO2 SLP177 T00061050

TAF KBRL
Valide du 23 à 00h jusqu'au 24 à 00h UTC


230005Z 2300/2324 17014KT 3SM -SN BR OVC020
FM230200 15009KT 2SM -SN BR OVC012
FM230500 15009KT 2SM -SN BR OVC007
FM231800 13007KT 3/4SM -SHSN BR OVC004



MET'MAP, la Météo Aéronautique d'un coup d'oeil ! - Copyright ORBIFLY Décembre 2007 - Disclaimer

ORBIFLY MET'MAP TEAM :

Programmation & Développement : Alexandra Zaïnal
Sur une idée originale de : Baudouin d'Aumeries
Assistance à la programmation : Marc-Olivier Méhu
Soutien technique & logistique : Manuel Goepfert

Contact : metmap@orbifly.com




SOURCES & CREDITS :

   NOAA       Earth
Advisory